Latest Weather Observations for Noonamah

IDD60901

Issued at 2:01 pm CST Friday 23 August 2019 (issued every 10 minutes, with the page automatically refreshed every 10 minutes)

About weather observations | Map of Darwin area stations | Latest observations for Darwin area | Other Formats
Station Details ID: 014314 Name: NOONAMAH AIRSTRIP Lat: -12.61 Lon: 131.05 Height: 17.5 m
Data from the previous 72 hours. | See also: Recent months at Noonamah
Date/Time
CST
Temp
°C
App
Temp
°C
Dew
Point
°C
Rel
Hum
%
Delta-T
°C
Wind Press
QNH
hPa
Press
MSL
hPa
Rain since
9am
mm
Dir  Spd
km/h
Gust
km/h
Spd
kts
Gust
kts
23/02:00pm 33.1 31.3 7.9 21 14.0 SE 7 13 4 7 1013.0 1012.9 0.0
23/01:30pm 33.0 31.2 7.1 20 14.2 ENE 6 15 3 8 1013.5 1013.4 0.0
23/01:00pm 32.6 30.4 6.0 19 14.3 SE 7 20 4 11 1014.0 1013.9 0.0
23/12:30pm 31.7 29.8 7.4 22 13.3 NE 7 17 4 9 1014.5 1014.4 0.0
23/12:00pm 31.5 29.1 8.5 24 12.8 ESE 11 19 6 10 1015.2 1015.1 0.0
23/11:30am 31.1 28.8 7.5 23 12.9 NE 9 17 5 9 1015.8 1015.7 0.0
23/11:00am 30.1 27.8 9.1 27 11.7 ENE 11 19 6 10 1016.4 1016.3 0.0
23/10:30am 29.9 30.4 14.0 37 9.6 NE 4 7 2 4 1016.7 1016.6 0.0
23/10:00am 28.2 28.6 14.8 44 8.1 ENE 6 11 3 6 1017.0 1016.9 0.0
23/09:30am 27.3 28.8 16.6 52 6.6 E 4 6 2 3 1017.0 1016.9 0.0
23/09:00am 25.8 27.6 15.5 53 6.2 CALM 0 0 0 0 1016.8 1016.7 0.0
23/08:30am 22.6 24.2 15.0 62 4.5 CALM 0 0 0 0 1016.7 1016.6 0.0
23/08:00am 19.2 20.7 14.7 75 2.6 CALM 0 0 0 0 1016.4 1016.3 0.0
23/07:30am 16.5 17.4 13.0 80 1.9 CALM 0 0 0 0 1016.3 1016.2 0.0
23/07:00am 15.6 16.4 12.4 81 1.8 CALM 0 0 0 0 1015.9 1015.8 0.0
23/06:30am 15.5 16.1 11.9 79 2.0 CALM 0 0 0 0 1015.6 1015.5 0.0
23/06:00am 16.0 16.7 12.2 78 2.1 CALM 0 0 0 0 1015.5 1015.4 0.0
23/05:30am 16.3 17.2 12.8 80 1.9 CALM 0 0 0 0 1015.3 1015.2 0.0
23/05:00am 16.2 16.8 12.0 76 2.3 CALM 0 0 0 0 1015.1 1015.0 0.0
23/04:30am 16.8 17.6 12.5 76 2.4 CALM 0 0 0 0 1014.9 1014.8 0.0
23/04:00am 17.0 17.9 12.9 77 2.3 CALM 0 0 0 0 1014.9 1014.8 0.0
23/03:30am 17.2 17.9 12.1 72 2.8 CALM 0 0 0 0 1014.9 1014.8 0.0
23/03:00am 17.6 18.4 12.7 73 2.7 CALM 0 0 0 0 1015.1 1015.0 0.0
23/02:30am 17.6 18.4 12.7 73 2.7 CALM 0 0 0 0 1015.4 1015.3 0.0
23/02:00am 18.2 19.0 12.4 69 3.2 CALM 0 0 0 0 1015.7 1015.6 0.0
23/01:30am 18.4 19.1 12.2 67 3.4 CALM 0 0 0 0 1015.9 1015.8 0.0
23/01:00am 18.9 19.7 12.4 66 3.6 CALM 0 0 0 0 1016.1 1016.0 0.0
23/12:30am 19.4 20.4 13.1 67 3.6 CALM 0 0 0 0 1016.3 1016.2 0.0
23/12:00am 19.4 20.0 11.9 62 4.2 CALM 0 0 0 0 1016.3 1016.2 0.0
 
Date/Time
CST
Temp
°C
App
Temp
°C
Dew
Point
°C
Rel
Hum
%
Delta-T
°C
Wind Press
QNH
hPa
Press
MSL
hPa
Rain since
9am
mm
Dir  Spd
km/h
Gust
km/h
Spd
kts
Gust
kts
22/11:30pm 19.9 20.5 11.9 60 4.4 CALM 0 0 0 0 1016.4 1016.3 0.0
22/11:00pm 21.1 21.6 12.8 59 4.7 S 2 4 1 2 1016.5 1016.4 0.0
22/10:30pm 21.8 22.1 12.1 54 5.5 SSW 2 4 1 2 1016.3 1016.2 0.0
22/10:00pm 22.6 22.9 12.3 52 5.8 SW 2 4 1 2 1016.0 1015.9 0.0
22/09:30pm 23.5 23.4 12.2 49 6.4 W 4 4 2 2 1015.9 1015.8 0.0
22/09:00pm 24.4 24.0 13.0 49 6.6 SW 7 13 4 7 1015.4 1015.3 0.0
22/08:30pm 23.9 24.4 11.6 46 6.9 CALM 0 0 0 0 1014.9 1014.8 0.0
22/08:00pm 24.7 25.1 11.3 43 7.5 CALM 0 0 0 0 1014.5 1014.4 0.0
22/07:30pm 26.4 26.7 10.9 38 8.7 CALM 0 0 0 0 1014.2 1014.1 0.0
22/07:00pm 28.4 28.4 11.0 34 9.9 NNE 2 4 1 2 1013.8 1013.7 0.0
22/06:30pm 29.7 28.8 11.2 31 10.7 NNE 7 13 4 7 1013.4 1013.3 0.0
22/06:00pm 30.7 29.5 11.6 31 11.1 NNE 9 17 5 9 1013.1 1013.0 0.0
22/05:30pm 31.7 30.2 12.0 30 11.6 NE 11 20 6 11 1012.7 1012.6 0.0
22/05:00pm 32.7 31.2 10.7 26 12.7 NE 9 15 5 8 1012.4 1012.3 0.0
22/04:30pm 32.4 30.0 9.9 25 12.9 NNE 13 20 7 11 1012.2 1012.1 0.0
22/04:00pm 33.2 31.2 8.6 22 13.8 ENE 9 19 5 10 1012.1 1012.0 0.0
22/03:30pm 32.9 30.2 9.0 23 13.5 ENE 13 22 7 12 1012.3 1012.2 0.0
22/03:00pm 33.2 31.0 9.3 23 13.6 E 11 19 6 10 1012.4 1012.3 0.0
22/02:30pm 32.6 30.2 8.8 23 13.4 ENE 11 26 6 14 1012.7 1012.6 0.0
22/02:00pm 32.7 30.9 9.5 24 13.2 NE 9 26 5 14 1013.1 1013.0 0.0
22/01:30pm 32.5 30.3 9.3 24 13.1 ENE 11 26 6 14 1013.6 1013.5 0.0
22/01:00pm 31.5 28.7 8.5 24 12.8 NE 13 30 7 16 1014.0 1013.9 0.0
22/12:30pm 31.2 27.3 7.0 22 13.1 ENE 17 28 9 15 1014.4 1014.3 0.0
22/12:00pm 31.3 26.9 6.4 21 13.4 ESE 19 33 10 18 1015.0 1014.9 0.0
22/11:30am 30.8 27.2 6.6 22 13.0 E 15 24 8 13 1015.5 1015.4 0.0
22/11:00am 29.6 24.8 5.6 22 12.6 E 20 30 11 16 1015.9 1015.8 0.0
22/10:30am 29.1 24.5 6.5 24 12.0 ESE 20 32 11 17 1016.3 1016.2 0.0
22/10:00am 27.5 23.2 6.8 27 11.0 ESE 19 32 10 17 1016.4 1016.3 0.0
22/09:30am 26.5 22.6 7.0 29 10.3 ESE 17 32 9 17 1016.5 1016.4 0.0
22/09:00am 25.0 22.4 7.6 33 9.2 ESE 11 17 6 9 1016.4 1016.3 0.0
22/08:30am 22.6 19.2 6.0 34 8.4 SE 13 17 7 9 1016.4 1016.3 0.0
22/08:00am 19.9 17.5 4.4 36 7.5 SE 6 11 3 6 1016.3 1016.2 0.0
22/07:30am 15.5 13.5 4.3 47 5.2 SE 4 4 2 2 1016.1 1016.0 0.0
22/07:00am 14.2 12.1 3.7 49 4.8 SE 4 6 2 3 1015.7 1015.6 0.0
22/06:30am 14.3 12.1 3.5 48 4.9 SE 4 4 2 2 1015.6 1015.5 0.0
22/06:00am 14.6 12.8 3.4 47 5.1 SE 2 4 1 2 1015.3 1015.2 0.0
22/05:30am 14.8 12.5 3.0 45 5.3 SE 4 6 2 3 1014.9 1014.8 0.0
22/05:00am 14.9 12.6 2.8 44 5.4 SE 4 4 2 2 1014.7 1014.6 0.0
22/04:30am 15.4 13.3 1.5 39 6.1 SE 2 4 1 2 1014.7 1014.6 0.0
22/04:00am 15.5 13.1 2.3 41 5.9 SE 4 6 2 3 1014.7 1014.6 0.0
22/03:30am 16.1 13.5 1.0 36 6.6 SE 4 4 2 2 1014.8 1014.7 0.0
22/03:00am 17.1 14.3 1.9 36 6.8 SE 6 6 3 3 1015.1 1015.0 0.0
22/02:30am 17.1 14.3 1.9 36 6.8 ESE 6 6 3 3 1015.2 1015.1 0.0
22/02:00am 16.3 13.9 2.3 39 6.3 ESE 4 6 2 3 1015.4 1015.3 0.0
22/01:30am 17.3 15.0 2.5 37 6.7 ESE 4 6 2 3 1015.4 1015.3 0.0
22/01:00am 17.6 15.2 2.4 36 6.9 SE 4 6 2 3 1015.4 1015.3 0.0
22/12:30am 17.9 16.0 2.6 36 7.0 SE 2 4 1 2 1015.5 1015.4 0.0
22/12:00am 18.4 16.0 2.3 34 7.3 SSE 4 6 2 3 1015.5 1015.4 0.0
 
Date/Time
CST
Temp
°C
App
Temp
°C
Dew
Point
°C
Rel
Hum
%
Delta-T
°C
Wind Press
QNH
hPa
Press
MSL
hPa
Rain since
9am
mm
Dir  Spd
km/h
Gust
km/h
Spd
kts
Gust
kts
21/11:30pm 19.0 16.9 2.0 32 7.7 SE 2 4 1 2 1015.5 1015.4 0.0
21/11:00pm 21.3 18.7 1.0 26 9.2 SE 4 7 2 4 1015.3 1015.2 0.0
21/10:30pm 22.3 19.2 1.3 25 9.7 SE 7 9 4 5 1015.3 1015.2 0.0
21/10:00pm 22.1 19.1 1.7 26 9.5 SE 7 9 4 5 1015.2 1015.1 0.0
21/09:30pm 21.4 18.6 2.2 28 9.0 SE 6 9 3 5 1015.1 1015.0 0.0
21/09:00pm 21.7 19.0 2.4 28 9.1 SSE 6 6 3 3 1014.9 1014.8 0.0
21/08:30pm 21.4 19.2 3.1 30 8.7 SSE 4 6 2 3 1014.6 1014.5 0.0
21/08:00pm 22.7 20.4 2.8 27 9.5 SSE 4 6 2 3 1014.1 1014.0 0.0
21/07:30pm 24.7 22.3 2.2 23 10.8 SSE 4 4 2 2 1013.5 1013.4 0.0
21/07:00pm 26.9 24.1 2.1 20 12.0 SE 6 7 3 4 1012.9 1012.8 0.0
21/06:30pm 29.2 26.2 1.7 17 13.5 SE 7 11 4 6 1012.5 1012.4 0.0
21/06:00pm 30.7 26.8 1.1 15 14.5 SE 11 17 6 9 1012.3 1012.2 0.0
21/05:30pm 31.3 27.7 0.6 14 15.0 ESE 9 17 5 9 1012.0 1011.9 0.0
21/05:00pm 31.9 27.6 1.1 14 15.2 SE 13 22 7 12 1011.8 1011.7 0.0
21/04:30pm 32.0 28.1 1.2 14 15.2 SE 11 22 6 12 1011.8 1011.7 0.0
21/04:00pm 32.1 27.5 1.3 14 15.3 SE 15 24 8 13 1011.8 1011.7 0.0
21/03:30pm 32.4 27.4 1.5 14 15.4 SE 17 28 9 15 1011.8 1011.7 0.0
21/03:00pm 31.6 26.5 0.9 14 15.1 ESE 17 24 9 13 1012.0 1011.9 0.0
21/02:30pm 31.8 27.1 1.0 14 15.2 ESE 15 26 8 14 1012.5 1012.4 0.0
21/02:00pm 31.1 26.0 0.5 14 14.9 E 17 37 9 20 1012.9 1012.8 0.0
21/01:30pm 31.3 25.6 -0.4 13 15.2 SE 19 32 10 17 1013.3 1013.2 0.0
21/01:00pm 30.4 24.5 -1.1 13 14.8 SE 20 33 11 18 1013.9 1013.8 0.0
21/12:30pm 30.2 24.8 -1.2 13 14.7 ESE 17 33 9 18 1014.4 1014.3 0.0
21/12:00pm 29.2 23.0 -3.1 12 14.5 SE 20 30 11 16 1015.0 1014.9 0.0
21/11:30am 28.6 22.5 -2.5 13 14.1 ESE 20 33 11 18 1015.5 1015.4 0.0
21/11:00am 28.1 21.8 -3.9 12 14.1 SE 20 28 11 15 1016.0 1015.9 0.0
21/10:30am 26.7 20.6 -4.0 13 13.3 SE 19 30 10 16 1016.4 1016.3 0.0
21/10:00am 25.4 19.2 -3.1 15 12.4 SE 20 30 11 16 1016.4 1016.3 0.0
21/09:30am 23.8 16.7 -4.4 15 11.8 SE 24 35 13 19 1016.7 1016.6 0.0
21/09:00am 23.2 17.0 -4.8 15 11.6 SE 19 30 10 16 1016.7 1016.6 0.0
21/08:30am 22.2 16.6 -3.2 18 10.7 SE 17 30 9 16 1016.6 1016.5 0.0
21/08:00am 21.1 16.4 -2.0 21 9.9 SE 13 22 7 12 1016.4 1016.3 0.0
21/07:30am 20.0 15.3 -1.7 23 9.3 SE 13 20 7 11 1016.2 1016.1 0.0
21/07:00am 19.4 15.6 -1.1 25 8.8 SE 9 15 5 8 1016.1 1016.0 0.0
21/06:30am 19.4 15.2 -0.6 26 8.7 SE 11 17 6 9 1015.7 1015.6 0.0
21/06:00am 19.4 15.7 -0.1 27 8.5 SE 9 13 5 7 1015.6 1015.5 0.0
21/05:30am 19.6 16.0 0.6 28 8.5 SE 9 17 5 9 1015.4 1015.3 0.0
21/05:00am 19.2 16.0 0.8 29 8.2 ESE 7 11 4 6 1015.4 1015.3 0.0
21/04:30am 19.0 16.0 1.1 30 8.0 SE 6 9 3 5 1015.6 1015.5 0.0
21/04:00am 18.9 15.9 1.0 30 8.0 SSE 6 7 3 4 1015.7 1015.6 0.0
21/03:30am 20.3 17.3 0.7 27 8.8 SE 6 9 3 5 1015.6 1015.5 0.0
21/03:00am 21.2 17.9 -0.1 24 9.5 SSE 7 11 4 6 1015.7 1015.6 0.0
21/02:30am 22.6 18.9 -0.2 22 10.2 SE 9 13 5 7 1015.8 1015.7 0.0
21/02:00am 22.9 19.2 0.1 22 10.3 SE 9 15 5 8 1016.1 1016.0 0.0
21/01:30am 23.3 19.2 -0.2 21 10.6 SE 11 17 6 9 1016.3 1016.2 0.0
21/01:00am 23.6 19.5 0.0 21 10.7 SE 11 19 6 10 1016.5 1016.4 0.0
21/12:30am 24.0 19.6 0.4 21 10.8 SE 13 19 7 10 1016.5 1016.4 0.0
21/12:00am 24.6 19.8 0.2 20 11.2 SE 15 24 8 13 1016.6 1016.5 0.0
 
Date/Time
CST
Temp
°C
App
Temp
°C
Dew
Point
°C
Rel
Hum
%
Delta-T
°C
Wind Press
QNH
hPa
Press
MSL
hPa
Rain since
9am
mm
Dir  Spd
km/h
Gust
km/h
Spd
kts
Gust
kts
20/11:30pm 25.0 19.9 0.5 20 11.4 SE 17 28 9 15 1016.5 1016.4 0.0
20/11:00pm 25.1 20.5 1.3 21 11.2 SE 15 24 8 13 1016.2 1016.1 0.0
20/10:30pm 25.7 21.0 1.1 20 11.6 SE 15 20 8 11 1016.2 1016.1 0.0
20/10:00pm 25.4 21.7 2.2 22 11.2 SE 11 17 6 9 1016.0 1015.9 0.0
20/09:30pm 21.0 19.8 6.5 39 7.3 SE 2 6 1 3 1015.8 1015.7 0.0
20/09:00pm 21.6 20.2 5.5 35 8.0 WNW 2 4 1 2 1015.5 1015.4 0.0
20/08:30pm 22.7 21.5 4.7 31 8.9 CALM 0 0 0 0 1015.2 1015.1 0.0
20/08:00pm 24.6 23.0 4.4 27 10.1 SSE 2 4 1 2 1014.7 1014.6 0.0
20/07:30pm 26.5 24.4 3.7 23 11.3 SSE 4 6 2 3 1014.2 1014.1 0.0
20/07:00pm 28.8 26.1 2.9 19 12.9 SSE 6 9 3 5 1013.5 1013.4 0.0
20/06:30pm 30.9 27.6 2.2 16 14.3 SE 9 17 5 9 1012.8 1012.7 0.0
20/06:00pm 32.2 27.7 2.3 15 15.1 SE 15 22 8 12 1012.4 1012.3 0.0
20/05:30pm 33.1 28.6 2.1 14 15.7 SE 15 22 8 12 1012.2 1012.1 0.0
20/05:00pm 33.5 28.3 2.4 14 15.8 ESE 19 28 10 15 1012.1 1012.0 0.0
20/04:30pm 33.5 27.5 1.3 13 16.1 SE 22 30 12 16 1012.0 1011.9 0.0
20/04:00pm 33.7 27.4 1.5 13 16.2 ESE 24 35 13 19 1012.0 1011.9 0.0
20/03:30pm 34.0 28.7 1.7 13 16.3 SE 19 30 10 16 1012.1 1012.0 0.0
20/03:00pm 33.4 27.8 1.3 13 16.0 SE 20 32 11 17 1012.5 1012.4 0.0
20/02:30pm 33.2 28.0 0.0 12 16.2 ESE 17 30 9 16 1013.1 1013.0 0.0

Latest Capital City Observations: Canberra | Sydney | Melbourne | Brisbane | Adelaide | Perth | Hobart | Darwin

Other formats

Comma delimited format used in spreadsheet applications
http://www.bom.gov.au/fwo/IDD60901/IDD60901.94105.axf

JavaScript Object Notation format (JSON) in row-major order
http://www.bom.gov.au/fwo/IDD60901/IDD60901.94105.json

Data quality

Most of these data are generated automatically and are frequently updated. Quality checks on data are not normally performed. It is possible for incorrect values to appear. Refer to information at About Latest Weather Observations and please check the disclaimer before using these data.